Time;durP1;ratioP1;P1;durP2;ratioP2;P2;SDS_P1;SDS_P2;PMS_P1;PMS_P2;Temp;Humidity;BMP_temperature;BMP_pressure;BME280_temperature;BME280_humidity;BME280_pressure;Samples;Min_cycle;Max_cycle;Signal;HPM_P1;HPM_P2
2022/09/03 00:02:34;;;;;;;1.53;1.20;;;16.80;99.90;;;;;;4932998;29;20539;-76
2022/09/03 00:05:25;;;;;;;1.40;1.30;;;16.80;99.90;;;;;;4931057;29;20471;-78
2022/09/03 00:08:20;;;;;;;1.17;1.07;;;16.70;99.90;;;;;;4932755;28;20807;-76
2022/09/03 00:11:13;;;;;;;1.87;1.30;;;16.70;99.90;;;;;;4933875;28;20437;-76
2022/09/03 00:14:06;;;;;;;1.53;1.43;;;16.60;99.90;;;;;;4931448;28;20460;-76
2022/09/03 00:16:58;;;;;;;1.20;1.10;;;16.60;99.90;;;;;;4933749;29;21047;-76
2022/09/03 00:19:55;;;;;;;2.03;1.20;;;16.60;99.90;;;;;;4931959;29;20527;-76
2022/09/03 00:22:47;;;;;;;1.27;1.20;;;16.60;99.90;;;;;;4933206;29;20668;-76
2022/09/03 00:25:40;;;;;;;2.40;1.30;;;16.60;99.90;;;;;;4931475;29;20995;-76
2022/09/03 00:28:33;;;;;;;1.40;1.30;;;16.50;99.90;;;;;;4931219;29;20472;-76
2022/09/03 00:31:27;;;;;;;1.87;1.40;;;16.50;99.90;;;;;;4932721;29;20529;-76
2022/09/03 00:34:22;;;;;;;1.40;1.30;;;16.50;99.90;;;;;;4930444;28;20456;-76
2022/09/03 00:37:11;;;;;;;1.30;1.30;;;16.50;99.90;;;;;;4930076;29;20559;-76
2022/09/03 00:40:06;;;;;;;1.50;1.40;;;16.40;99.90;;;;;;4930939;29;20571;-76
2022/09/03 00:43:01;;;;;;;1.80;1.50;;;16.40;99.90;;;;;;4930848;28;20511;-76
2022/09/03 00:46:01;;;;;;;1.90;1.30;;;16.40;99.90;;;;;;4932864;28;20468;-76
2022/09/03 00:49:13;;;;;;;2.27;1.30;;;16.30;99.90;;;;;;4930907;29;20456;-76
2022/09/03 00:52:11;;;;;;;1.23;1.13;;;16.30;99.90;;;;;;4932676;29;20448;-76
2022/09/03 00:55:08;;;;;;;2.07;1.50;;;16.30;99.90;;;;;;4931917;29;20980;-75
2022/09/03 00:58:16;;;;;;;2.03;1.40;;;16.20;99.90;;;;;;4930328;29;21062;-76
2022/09/03 01:01:10;;;;;;;1.30;1.20;;;16.20;99.90;;;;;;4932145;28;20633;-75
2022/09/03 01:04:08;;;;;;;2.10;1.33;;;16.20;99.90;;;;;;4928644;29;20546;-76
2022/09/03 01:07:03;;;;;;;1.47;1.37;;;16.10;99.90;;;;;;4927649;29;20840;-76
2022/09/03 01:10:04;;;;;;;1.30;1.20;;;16.10;99.90;;;;;;4928166;29;20539;-76
2022/09/03 01:13:02;;;;;;;1.63;1.40;;;16.10;99.90;;;;;;4925545;28;20514;-76
2022/09/03 01:16:01;;;;;;;2.10;1.27;;;16.10;99.90;;;;;;4928326;28;21003;-76
2022/09/03 01:18:55;;;;;;;2.77;1.63;;;16.00;99.90;;;;;;4928114;29;21014;-76
2022/09/03 01:22:04;;;;;;;1.50;1.40;;;16.00;99.90;;;;;;4927271;29;20623;-75
2022/09/03 01:25:16;;;;;;;1.70;1.60;;;16.00;99.90;;;;;;4925980;29;20460;-76
2022/09/03 01:28:33;;;;;;;1.53;1.43;;;16.00;99.90;;;;;;4925799;28;20456;-76
2022/09/03 01:31:30;;;;;;;2.70;1.80;;;16.00;99.90;;;;;;4925515;29;20543;-76
2022/09/03 01:34:30;;;;;;;1.30;1.20;;;15.90;99.90;;;;;;4928960;29;20475;-76
2022/09/03 01:37:28;;;;;;;1.77;1.40;;;15.90;99.90;;;;;;4927358;29;21028;-75
2022/09/03 01:40:24;;;;;;;1.87;1.77;;;15.90;99.90;;;;;;4927595;29;20631;-76
2022/09/03 01:43:31;;;;;;;1.60;1.50;;;15.90;99.90;;;;;;4926721;28;20452;-76
2022/09/03 01:46:26;;;;;;;1.50;1.47;;;15.80;99.90;;;;;;4931299;29;20480;-76
2022/09/03 01:49:22;;;;;;;2.63;1.60;;;15.90;99.90;;;;;;4929471;29;20468;-76
2022/09/03 01:52:13;;;;;;;1.57;1.40;;;15.80;99.90;;;;;;4928746;29;20452;-76
2022/09/03 01:55:13;;;;;;;2.03;1.77;;;15.80;99.90;;;;;;4930746;29;20987;-76
2022/09/03 01:58:09;;;;;;;1.73;1.63;;;15.70;99.90;;;;;;4931299;29;20542;-76
2022/09/03 02:01:03;;;;;;;2.97;1.20;;;15.70;99.90;;;;;;4930829;29;20508;-76
2022/09/03 02:03:58;;;;;;;1.40;1.30;;;15.70;99.90;;;;;;4928884;29;20979;-76
2022/09/03 02:06:48;;;;;;;2.90;1.50;;;15.70;99.90;;;;;;4926254;29;20567;-76
2022/09/03 02:09:39;;;;;;;1.53;1.43;;;15.70;99.90;;;;;;4929179;29;20558;-75
2022/09/03 02:12:31;;;;;;;2.33;1.50;;;15.70;99.90;;;;;;4925882;29;20468;-76
2022/09/03 02:15:22;;;;;;;1.80;1.70;;;15.60;99.90;;;;;;4924876;29;20544;-76
2022/09/03 02:18:17;;;;;;;1.93;1.73;;;15.60;99.90;;;;;;4924891;29;20968;-76
2022/09/03 02:21:06;;;;;;;1.53;1.43;;;15.60;99.90;;;;;;4925181;28;21323;-76
2022/09/03 02:23:54;;;;;;;1.70;1.60;;;15.60;99.90;;;;;;4927812;29;20506;-76
2022/09/03 02:26:43;;;;;;;1.90;1.50;;;15.50;99.90;;;;;;4927957;29;20624;-76
2022/09/03 02:29:33;;;;;;;1.83;1.63;;;15.50;99.90;;;;;;4930497;29;20950;-76
2022/09/03 02:32:21;;;;;;;2.30;1.47;;;15.50;99.90;;;;;;4929826;29;20596;-76
2022/09/03 02:35:11;;;;;;;2.37;1.73;;;15.50;99.90;;;;;;4932116;29;20464;-76
2022/09/03 02:38:10;;;;;;;1.40;1.30;;;15.50;99.90;;;;;;4933497;29;20813;-75
2022/09/03 02:40:58;;;;;;;1.60;1.50;;;15.50;99.90;;;;;;4933634;29;20980;-75
2022/09/03 02:43:51;;;;;;;1.97;1.77;;;15.40;99.90;;;;;;4934532;29;20550;-76
2022/09/03 02:46:43;;;;;;;1.60;1.50;;;15.40;99.90;;;;;;4933046;29;20557;-76
2022/09/03 02:49:32;;;;;;;1.50;1.40;;;15.40;99.90;;;;;;4931339;29;20460;-76
2022/09/03 02:52:22;;;;;;;1.80;1.50;;;15.30;99.90;;;;;;4929965;29;20547;-76
2022/09/03 02:55:10;;;;;;;1.43;1.33;;;15.30;99.90;;;;;;4932738;29;20515;-75
2022/09/03 02:57:59;;;;;;;2.20;1.50;;;15.30;99.90;;;;;;4930439;29;20471;-76
2022/09/03 03:00:48;;;;;;;1.87;1.63;;;15.30;99.90;;;;;;4929994;29;20605;-75
2022/09/03 03:03:36;;;;;;;1.57;1.47;;;15.20;99.90;;;;;;4929974;29;20464;-76
2022/09/03 03:06:24;;;;;;;1.70;1.60;;;15.20;99.90;;;;;;4930393;29;20612;-76
2022/09/03 03:09:14;;;;;;;1.87;1.50;;;15.20;99.90;;;;;;4930593;28;20853;-76
2022/09/03 03:12:03;;;;;;;3.10;1.60;;;15.20;99.90;;;;;;4932386;29;20615;-75
2022/09/03 03:14:51;;;;;;;2.60;1.60;;;15.10;99.90;;;;;;4933073;29;21055;-75
2022/09/03 03:17:40;;;;;;;1.90;1.43;;;15.10;99.90;;;;;;4928365;29;20475;-76
2022/09/03 03:20:28;;;;;;;3.43;1.37;;;15.00;99.90;;;;;;4931640;29;21236;-76
2022/09/03 03:23:17;;;;;;;1.60;1.50;;;15.00;99.90;;;;;;4933226;29;20599;-76
2022/09/03 03:26:08;;;;;;;1.90;1.80;;;15.00;99.90;;;;;;4934168;29;20575;-76
2022/09/03 03:28:59;;;;;;;1.53;1.43;;;15.00;99.90;;;;;;4931392;29;20599;-76
2022/09/03 03:31:47;;;;;;;1.53;1.40;;;15.00;99.90;;;;;;4932216;29;20547;-75
2022/09/03 03:34:36;;;;;;;1.70;1.60;;;15.00;99.90;;;;;;4932705;29;20936;-76
2022/09/03 03:37:24;;;;;;;2.83;1.40;;;15.00;99.90;;;;;;4932194;29;20570;-75
2022/09/03 03:40:13;;;;;;;1.73;1.63;;;15.00;99.90;;;;;;4933400;29;20548;-76
2022/09/03 03:43:03;;;;;;;2.03;1.70;;;14.90;99.90;;;;;;4932704;29;20562;-76
2022/09/03 03:45:56;;;;;;;2.23;1.70;;;14.90;99.90;;;;;;4929013;29;20485;-76
2022/09/03 03:48:48;;;;;;;1.40;1.30;;;14.90;99.90;;;;;;4933854;29;20452;-75
2022/09/03 03:51:39;;;;;;;1.70;1.60;;;14.90;99.90;;;;;;4932441;29;20597;-76
2022/09/03 03:54:27;;;;;;;1.77;1.60;;;14.90;99.90;;;;;;4932529;29;20983;-76
2022/09/03 03:57:16;;;;;;;1.90;1.70;;;14.80;99.90;;;;;;4932630;29;20546;-76
2022/09/03 04:00:07;;;;;;;1.60;1.50;;;14.90;99.90;;;;;;4931147;29;20647;-76
2022/09/03 04:02:55;;;;;;;3.00;1.57;;;14.80;99.90;;;;;;4933020;29;20500;-76
2022/09/03 04:05:43;;;;;;;1.63;1.53;;;14.80;99.90;;;;;;4933791;29;20451;-76
2022/09/03 04:08:37;;;;;;;1.60;1.50;;;14.80;99.90;;;;;;4933014;29;20990;-76
2022/09/03 04:11:25;;;;;;;1.67;1.57;;;14.80;99.90;;;;;;4932046;29;20456;-76
2022/09/03 04:14:14;;;;;;;1.70;1.60;;;14.80;99.90;;;;;;4929301;28;20547;-76
2022/09/03 04:17:04;;;;;;;2.13;1.50;;;14.80;99.90;;;;;;4931890;29;20563;-76
2022/09/03 04:19:52;;;;;;;1.60;1.50;;;14.80;99.90;;;;;;4932716;29;20556;-76
2022/09/03 04:22:40;;;;;;;1.77;1.67;;;14.80;99.90;;;;;;4932375;29;20896;-76
2022/09/03 04:25:28;;;;;;;1.87;1.77;;;14.70;99.90;;;;;;4932630;29;20550;-76
2022/09/03 04:28:17;;;;;;;1.60;1.50;;;14.70;99.90;;;;;;4930630;29;20647;-75
2022/09/03 04:31:06;;;;;;;1.97;1.80;;;14.80;99.90;;;;;;4930645;29;20538;-76
2022/09/03 04:34:00;;;;;;;1.70;1.60;;;14.60;99.90;;;;;;4928031;29;20448;-76
2022/09/03 04:36:48;;;;;;;2.63;1.53;;;14.60;99.90;;;;;;4927731;29;20614;-76
2022/09/03 04:39:40;;;;;;;1.50;1.40;;;14.60;99.90;;;;;;4928454;29;20476;-76
2022/09/03 04:42:28;;;;;;;1.97;1.77;;;14.60;99.90;;;;;;4929149;29;20472;-76
2022/09/03 04:45:17;;;;;;;1.67;1.57;;;14.60;99.90;;;;;;4927903;29;20495;-75
2022/09/03 04:48:09;;;;;;;1.67;1.57;;;14.50;99.90;;;;;;4928190;29;20467;-75
2022/09/03 04:51:05;;;;;;;2.37;1.60;;;14.50;99.90;;;;;;4927800;29;22723;-76
2022/09/03 04:53:55;;;;;;;1.50;1.40;;;14.50;99.90;;;;;;4926812;29;20793;-76
2022/09/03 04:56:43;;;;;;;1.63;1.53;;;14.50;99.90;;;;;;4926441;28;20503;-75
2022/09/03 04:59:31;;;;;;;1.50;1.37;;;14.50;99.90;;;;;;4929025;29;20600;-75
2022/09/03 05:02:20;;;;;;;1.70;1.60;;;14.50;99.90;;;;;;4929152;29;20619;-76
2022/09/03 05:05:09;;;;;;;4.37;1.80;;;14.50;99.90;;;;;;4930523;29;20460;-76
2022/09/03 05:08:00;;;;;;;1.60;1.50;;;14.50;99.90;;;;;;4927478;29;20448;-76
2022/09/03 05:10:49;;;;;;;1.53;1.43;;;14.50;99.90;;;;;;4930274;28;20591;-76
2022/09/03 05:13:42;;;;;;;1.87;1.67;;;14.50;99.90;;;;;;4929728;29;20554;-76
2022/09/03 05:16:30;;;;;;;2.20;1.90;;;14.50;99.90;;;;;;4931842;29;20891;-75
2022/09/03 05:19:18;;;;;;;1.63;1.53;;;14.50;99.90;;;;;;4930615;29;20452;-77
2022/09/03 05:22:09;;;;;;;1.83;1.70;;;14.50;99.90;;;;;;4931357;29;20479;-75
2022/09/03 05:24:58;;;;;;;2.20;1.83;;;14.50;99.90;;;;;;4929884;29;20452;-75
2022/09/03 05:27:47;;;;;;;1.57;1.47;;;14.50;99.90;;;;;;4931050;28;20539;-76
2022/09/03 05:30:35;;;;;;;1.70;1.60;;;14.50;99.90;;;;;;4931399;29;20910;-76
2022/09/03 05:33:23;;;;;;;1.87;1.60;;;14.50;99.90;;;;;;4929880;29;20613;-75
2022/09/03 05:36:14;;;;;;;1.73;1.63;;;14.50;99.90;;;;;;4929296;29;20971;-76
2022/09/03 05:39:03;;;;;;;3.13;1.87;;;14.60;99.90;;;;;;4928096;28;20506;-76
2022/09/03 05:41:53;;;;;;;2.57;1.80;;;14.60;99.90;;;;;;4928394;29;20542;-76
2022/09/03 05:44:42;;;;;;;2.03;1.70;;;14.60;99.90;;;;;;4929141;29;20466;-76
2022/09/03 05:47:30;;;;;;;2.97;1.60;;;14.60;99.90;;;;;;4930464;29;20530;-76
2022/09/03 05:50:19;;;;;;;2.13;1.50;;;14.60;99.90;;;;;;4929057;29;20459;-75
2022/09/03 05:53:07;;;;;;;3.10;1.77;;;14.60;99.90;;;;;;4929524;28;20586;-76
2022/09/03 05:55:56;;;;;;;2.00;1.87;;;14.60;99.90;;;;;;4928142;29;20563;-76
2022/09/03 05:58:48;;;;;;;2.60;1.60;;;14.60;99.90;;;;;;4927903;29;20917;-75
2022/09/03 06:01:37;;;;;;;1.60;1.50;;;14.60;99.90;;;;;;4928405;29;20514;-76
2022/09/03 06:04:26;;;;;;;1.97;1.77;;;14.70;99.90;;;;;;4930020;29;20579;-76
2022/09/03 06:07:15;;;;;;;2.00;1.63;;;14.70;99.90;;;;;;4923122;29;20503;-76
2022/09/03 06:10:03;;;;;;;1.70;1.60;;;14.70;99.90;;;;;;4925206;28;20463;-76
2022/09/03 06:12:52;;;;;;;2.00;1.80;;;14.70;99.90;;;;;;4921501;29;20448;-78
2022/09/03 06:15:41;;;;;;;2.70;1.43;;;14.70;99.90;;;;;;4924855;29;20615;-76
2022/09/03 06:18:31;;;;;;;1.83;1.70;;;14.80;99.90;;;;;;4922369;29;20578;-76
2022/09/03 06:21:19;;;;;;;3.00;1.80;;;14.90;99.90;;;;;;4922760;29;20550;-76
2022/09/03 06:24:08;;;;;;;1.57;1.47;;;14.90;99.90;;;;;;4926026;29;21038;-76
2022/09/03 06:26:57;;;;;;;7.83;1.87;;;14.90;99.90;;;;;;4927976;29;20475;-76
2022/09/03 06:29:45;;;;;;;3.13;1.57;;;15.00;99.90;;;;;;4922650;29;20546;-76
2022/09/03 06:32:43;;;;;;;4.10;1.67;;;15.00;99.90;;;;;;4921483;29;20555;-76
2022/09/03 06:35:31;;;;;;;1.57;1.47;;;15.00;99.90;;;;;;4922852;28;20982;-75
2022/09/03 06:38:34;;;;;;;2.10;1.60;;;15.10;99.90;;;;;;4927720;28;20550;-75
2022/09/03 06:41:24;;;;;;;1.43;1.37;;;15.10;99.90;;;;;;4920787;29;20546;-76
2022/09/03 06:44:14;;;;;;;2.10;1.80;;;15.20;99.90;;;;;;4923652;29;21004;-75
2022/09/03 06:47:02;;;;;;;4.23;1.83;;;15.20;99.90;;;;;;4930945;29;21075;-75
2022/09/03 06:49:51;;;;;;;2.00;1.90;;;15.20;99.90;;;;;;4927789;29;20610;-75
2022/09/03 06:52:40;;;;;;;2.37;1.73;;;15.30;99.90;;;;;;4921693;29;20587;-75
2022/09/03 06:55:28;;;;;;;2.10;1.70;;;15.30;99.90;;;;;;4921780;29;20534;-75
2022/09/03 06:58:16;;;;;;;2.53;1.90;;;15.30;99.90;;;;;;4924480;29;20495;-75
2022/09/03 07:01:06;;;;;;;1.80;1.70;;;15.40;99.90;;;;;;4921133;29;20501;-75
2022/09/03 07:03:56;;;;;;;2.70;1.50;;;15.40;99.90;;;;;;4922971;28;20525;-76
2022/09/03 07:06:46;;;;;;;2.00;1.80;;;15.50;99.90;;;;;;4917334;29;20531;-76
2022/09/03 07:09:37;;;;;;;2.90;1.77;;;15.50;99.90;;;;;;4911737;29;20555;-75
2022/09/03 07:12:25;;;;;;;2.60;1.80;;;15.60;99.90;;;;;;4920418;29;20459;-75
2022/09/03 07:15:13;;;;;;;3.13;1.70;;;15.60;99.90;;;;;;4923102;29;20561;-76
2022/09/03 07:18:02;;;;;;;2.47;1.80;;;15.70;99.90;;;;;;4926468;29;20456;-75
2022/09/03 07:20:50;;;;;;;2.33;1.70;;;15.70;99.90;;;;;;4921107;29;20530;-75
2022/09/03 07:23:41;;;;;;;1.63;1.53;;;15.80;99.90;;;;;;4919566;29;20575;-75
2022/09/03 07:26:31;;;;;;;1.60;1.50;;;15.80;99.90;;;;;;4917779;29;20619;-75
2022/09/03 07:29:20;;;;;;;1.90;1.40;;;15.90;99.90;;;;;;4928877;29;20452;-76
2022/09/03 07:32:09;;;;;;;1.87;1.77;;;16.00;99.90;;;;;;4928489;29;20471;-76
2022/09/03 07:34:57;;;;;;;1.80;1.70;;;16.00;99.90;;;;;;4926336;28;20467;-76
2022/09/03 07:37:45;;;;;;;2.50;1.70;;;16.10;99.90;;;;;;4918616;29;20476;-77
2022/09/03 07:40:35;;;;;;;3.40;1.73;;;16.20;99.90;;;;;;4921809;29;20522;-75
2022/09/03 07:43:23;;;;;;;1.70;1.60;;;16.20;99.90;;;;;;4929795;29;21079;-76
2022/09/03 07:46:12;;;;;;;1.80;1.70;;;16.20;99.90;;;;;;4920049;29;20473;-78
2022/09/03 07:49:01;;;;;;;4.00;1.90;;;16.30;99.90;;;;;;4926641;28;20476;-76
2022/09/03 07:51:52;;;;;;;2.47;1.80;;;16.40;99.90;;;;;;4929404;28;20456;-77
2022/09/03 07:54:41;;;;;;;1.60;1.50;;;16.50;99.90;;;;;;4927503;29;21088;-78
2022/09/03 07:57:30;;;;;;;1.70;1.60;;;16.60;99.90;;;;;;4930252;29;20574;-77
2022/09/03 08:00:19;;;;;;;1.60;1.50;;;16.70;99.90;;;;;;4921071;29;20563;-78
2022/09/03 08:03:07;;;;;;;4.07;1.63;;;16.80;99.90;;;;;;4920195;29;20492;-76
2022/09/03 08:06:01;;;;;;;4.13;1.50;;;16.80;99.90;;;;;;4914150;29;20512;-75
2022/09/03 08:08:55;;;;;;;1.53;1.43;;;16.90;99.90;;;;;;4916631;29;20474;-73
2022/09/03 08:11:51;;;;;;;2.33;1.60;;;17.00;99.90;;;;;;4918598;29;20455;-74
2022/09/03 08:14:40;;;;;;;1.70;1.60;;;17.10;99.90;;;;;;4917747;29;20456;-74
2022/09/03 08:17:28;;;;;;;2.43;1.40;;;17.20;99.90;;;;;;4919471;28;20483;-74
2022/09/03 08:20:17;;;;;;;2.07;1.70;;;17.30;99.90;;;;;;4928384;28;20586;-73
2022/09/03 08:23:05;;;;;;;2.60;1.97;;;17.40;99.90;;;;;;4928491;29;21255;-74
2022/09/03 08:25:58;;;;;;;1.53;1.43;;;17.50;99.90;;;;;;4922057;29;21032;-73
2022/09/03 08:28:47;;;;;;;2.30;1.60;;;17.60;99.90;;;;;;4923530;29;20456;-74
2022/09/03 08:31:37;;;;;;;1.43;1.33;;;17.70;99.90;;;;;;4926397;29;20487;-74
2022/09/03 08:34:26;;;;;;;2.33;1.60;;;17.80;99.90;;;;;;4925808;29;20479;-73
2022/09/03 08:37:14;;;;;;;2.87;1.50;;;17.90;99.90;;;;;;4928578;29;20491;-73
2022/09/03 08:40:04;;;;;;;2.77;1.37;;;18.00;99.90;;;;;;4924216;29;20547;-73
2022/09/03 08:43:04;;;;;;;1.93;1.73;;;18.10;99.90;;;;;;4930776;28;20452;-73
2022/09/03 08:45:54;;;;;;;1.70;1.53;;;18.20;99.90;;;;;;4925262;29;20487;-73
2022/09/03 08:48:45;;;;;;;2.00;1.53;;;18.30;99.90;;;;;;4926136;29;20522;-73
2022/09/03 08:51:39;;;;;;;2.73;1.80;;;18.40;99.90;;;;;;4921920;29;20448;-75
2022/09/03 08:54:31;;;;;;;4.77;1.80;;;18.50;99.90;;;;;;4922551;29;20452;-74
2022/09/03 08:57:20;;;;;;;1.70;1.60;;;18.70;99.90;;;;;;4914880;29;21440;-77
2022/09/03 09:00:10;;;;;;;1.80;1.70;;;18.80;99.90;;;;;;4924399;29;21051;-76
2022/09/03 09:03:16;;;;;;;1.90;1.57;;;18.80;99.90;;;;;;4924748;29;20599;-76
2022/09/03 09:06:23;;;;;;;2.20;1.50;;;18.90;99.90;;;;;;4927371;29;20523;-75
2022/09/03 09:09:23;;;;;;;2.00;1.43;;;19.00;99.90;;;;;;4930659;29;20727;-76
2022/09/03 09:12:22;;;;;;;2.40;1.63;;;19.10;99.90;;;;;;4928755;29;20527;-76
2022/09/03 09:15:17;;;;;;;1.53;1.43;;;19.20;99.90;;;;;;4923845;29;20531;-79
2022/09/03 09:18:13;;;;;;;3.13;1.97;;;19.30;99.90;;;;;;4927869;28;20461;-76
2022/09/03 09:21:12;;;;;;;2.80;1.63;;;19.40;99.90;;;;;;4931698;28;20459;-76
2022/09/03 09:24:22;;;;;;;1.67;1.57;;;19.50;99.90;;;;;;4925203;29;20488;-76
2022/09/03 09:27:16;;;;;;;3.03;1.80;;;19.50;99.90;;;;;;4922288;28;20560;-76
2022/09/03 09:30:05;;;;;;;2.60;1.43;;;19.60;99.90;;;;;;4925204;29;20460;-76
2022/09/03 09:32:55;;;;;;;4.07;1.93;;;19.70;99.90;;;;;;4923065;29;20625;-74
2022/09/03 09:35:44;;;;;;;1.73;1.63;;;19.80;99.90;;;;;;4930379;29;20456;-74
2022/09/03 09:38:36;;;;;;;3.13;1.53;;;19.90;99.90;;;;;;4924914;29;21123;-77
2022/09/03 09:41:25;;;;;;;2.50;1.73;;;19.90;99.90;;;;;;4928962;29;20578;-78
2022/09/03 09:44:20;;;;;;;2.03;1.60;;;20.00;99.90;;;;;;4930175;28;20490;-74
2022/09/03 09:47:14;;;;;;;2.60;1.67;;;20.10;99.90;;;;;;4923535;29;20514;-75
2022/09/03 09:50:03;;;;;;;2.37;1.80;;;20.20;99.90;;;;;;4923359;29;20547;-75
2022/09/03 09:53:01;;;;;;;4.20;1.90;;;20.20;99.90;;;;;;4919029;28;20470;-75
2022/09/03 09:55:53;;;;;;;1.87;1.70;;;20.30;99.90;;;;;;4925006;29;20447;-75
2022/09/03 09:58:42;;;;;;;1.80;1.60;;;20.50;99.90;;;;;;4928462;29;20463;-74
2022/09/03 10:01:30;;;;;;;2.00;1.60;;;20.50;99.90;;;;;;4931550;29;20961;-74
2022/09/03 10:04:24;;;;;;;1.50;1.40;;;20.60;99.90;;;;;;4931985;29;21051;-75
2022/09/03 10:07:27;;;;;;;2.47;1.60;;;20.70;99.90;;;;;;4930105;29;20871;-76
2022/09/03 10:10:19;;;;;;;1.90;1.70;;;20.80;99.90;;;;;;4934188;29;20536;-75
2022/09/03 10:13:12;;;;;;;1.60;1.50;;;20.80;99.90;;;;;;4934085;29;20567;-75
2022/09/03 10:16:07;;;;;;;1.80;1.70;;;20.90;99.90;;;;;;4930786;29;20499;-74
2022/09/03 10:19:05;;;;;;;2.53;1.50;;;20.90;99.90;;;;;;4924332;29;20535;-76
2022/09/03 10:22:01;;;;;;;2.77;1.50;;;20.90;99.90;;;;;;4921279;29;21302;-73
2022/09/03 10:24:57;;;;;;;1.30;1.20;;;20.90;99.90;;;;;;4923103;29;20574;-74
2022/09/03 10:27:46;;;;;;;7.47;1.90;;;20.90;99.90;;;;;;4914148;29;20523;-76
2022/09/03 10:30:54;;;;;;;5.80;1.80;;;20.80;99.90;;;;;;4922323;29;20475;-76
2022/09/03 10:33:48;;;;;;;3.90;1.50;;;20.80;99.90;;;;;;4927709;29;20448;-76
2022/09/03 10:36:44;;;;;;;4.53;1.33;;;20.80;99.90;;;;;;4926429;29;20494;-76
2022/09/03 10:39:46;;;;;;;3.07;1.40;;;20.80;99.90;;;;;;4927341;29;20628;-76
2022/09/03 10:42:46;;;;;;;3.03;1.47;;;20.90;99.90;;;;;;4926971;29;20506;-76
2022/09/03 10:45:41;;;;;;;1.53;1.43;;;20.90;99.90;;;;;;4927464;28;20526;-76
2022/09/03 10:48:47;;;;;;;3.57;1.70;;;21.00;99.90;;;;;;4926511;28;20534;-76
2022/09/03 10:51:39;;;;;;;1.90;1.73;;;21.00;99.90;;;;;;4928964;29;20980;-76
2022/09/03 10:54:36;;;;;;;2.70;1.53;;;21.10;99.90;;;;;;4931734;29;20933;-76
2022/09/03 10:57:35;;;;;;;2.77;1.60;;;21.20;99.90;;;;;;4925791;29;20514;-76
2022/09/03 11:00:24;;;;;;;2.30;1.37;;;21.30;99.90;;;;;;4930640;29;20480;-76
2022/09/03 11:03:32;;;;;;;3.27;1.50;;;21.40;99.90;;;;;;4926430;29;20683;-76
2022/09/03 11:06:24;;;;;;;4.03;1.70;;;21.50;99.90;;;;;;4928404;28;20486;-76
2022/09/03 11:09:18;;;;;;;5.27;1.77;;;21.50;99.90;;;;;;4926825;29;20506;-76
2022/09/03 11:12:12;;;;;;;3.70;1.50;;;21.60;99.90;;;;;;4929801;29;20529;-76
2022/09/03 11:15:04;;;;;;;6.33;1.40;;;21.60;99.90;;;;;;4929811;29;20460;-75
2022/09/03 11:17:57;;;;;;;2.40;1.50;;;21.60;99.90;;;;;;4929823;29;20611;-76
2022/09/03 11:20:49;;;;;;;4.00;1.70;;;21.60;99.90;;;;;;4930391;28;21080;-76
2022/09/03 11:23:43;;;;;;;2.30;1.60;;;21.70;99.90;;;;;;4929046;29;20453;-76
2022/09/03 11:26:33;;;;;;;1.60;1.50;;;21.80;99.90;;;;;;4925770;29;20495;-76
2022/09/03 11:29:29;;;;;;;2.80;2.00;;;21.90;99.90;;;;;;4932563;28;20483;-76
2022/09/03 11:32:23;;;;;;;2.90;1.70;;;22.20;99.90;;;;;;4927777;28;20475;-76
2022/09/03 11:35:16;;;;;;;1.90;1.80;;;22.30;99.90;;;;;;4931194;29;20938;-76
2022/09/03 11:38:20;;;;;;;1.67;1.30;;;22.40;99.90;;;;;;4929280;29;20514;-76
2022/09/03 11:41:14;;;;;;;2.27;1.40;;;22.40;99.90;;;;;;4929451;29;20542;-76
2022/09/03 11:44:17;;;;;;;2.00;1.53;;;22.30;99.90;;;;;;4928254;29;20600;-75
2022/09/03 11:47:16;;;;;;;2.10;1.40;;;22.30;99.90;;;;;;4929931;28;20534;-76
2022/09/03 11:50:08;;;;;;;3.40;1.80;;;22.20;99.90;;;;;;4928109;29;20530;-76
2022/09/03 11:53:10;;;;;;;2.07;1.73;;;22.20;99.90;;;;;;4926774;28;20605;-76
2022/09/03 11:56:00;;;;;;;1.83;1.67;;;22.40;99.90;;;;;;4929917;29;20980;-76
2022/09/03 11:59:01;;;;;;;4.33;1.70;;;22.60;99.90;;;;;;4927596;29;20468;-77
2022/09/03 12:01:53;;;;;;;1.60;1.50;;;22.80;99.90;;;;;;4929503;28;20515;-76
2022/09/03 12:04:47;;;;;;;2.60;1.70;;;22.90;99.90;;;;;;4928884;29;20591;-77
2022/09/03 12:07:48;;;;;;;2.23;1.30;;;23.10;99.90;;;;;;4926734;28;20517;-76
2022/09/03 12:10:46;;;;;;;1.70;1.37;;;23.20;99.90;;;;;;4927661;29;20539;-76
2022/09/03 12:13:46;;;;;;;1.50;1.40;;;23.40;99.90;;;;;;4923883;29;20835;-77
2022/09/03 12:17:00;;;;;;;2.03;1.50;;;23.60;99.90;;;;;;4925192;29;20964;-76
2022/09/03 12:19:53;;;;;;;2.13;1.70;;;23.70;99.90;;;;;;4928919;29;20584;-76
2022/09/03 12:22:42;;;;;;;1.90;1.40;;;23.90;99.90;;;;;;4927291;29;20463;-77
2022/09/03 12:25:30;;;;;;;2.77;1.40;;;24.00;99.90;;;;;;4924015;29;20622;-76
2022/09/03 12:28:23;;;;;;;2.33;1.67;;;24.10;99.90;;;;;;4926577;29;21143;-76
2022/09/03 12:31:24;;;;;;;1.60;1.33;;;24.10;99.90;;;;;;4927267;29;20456;-77
2022/09/03 12:34:15;;;;;;;3.00;1.70;;;24.20;99.90;;;;;;4927009;28;20547;-77
2022/09/03 12:37:16;;;;;;;1.53;1.43;;;24.30;99.90;;;;;;4929459;29;20527;-76
2022/09/03 12:40:05;;;;;;;1.30;1.20;;;24.40;99.90;;;;;;4924278;29;20471;-76
2022/09/03 12:43:11;;;;;;;1.87;1.40;;;24.60;98.40;;;;;;4928350;28;20599;-77
2022/09/03 12:46:23;;;;;;;2.03;1.50;;;24.70;97.60;;;;;;4923330;28;21618;-77
2022/09/03 12:49:21;;;;;;;2.03;1.30;;;24.80;97.30;;;;;;4925476;29;20537;-77
2022/09/03 12:52:20;;;;;;;1.73;1.63;;;24.80;96.60;;;;;;4928210;28;20484;-74
2022/09/03 12:55:21;;;;;;;1.67;1.10;;;25.00;95.50;;;;;;4926481;29;20555;-74
2022/09/03 12:58:13;;;;;;;2.70;1.37;;;25.10;94.90;;;;;;4927469;29;20462;-74
2022/09/03 13:01:08;;;;;;;3.03;1.70;;;25.20;95.30;;;;;;4926647;28;20444;-77
2022/09/03 13:04:06;;;;;;;1.30;1.20;;;25.40;94.90;;;;;;4925674;29;21004;-77
2022/09/03 13:07:02;;;;;;;1.60;1.33;;;25.50;94.60;;;;;;4928388;28;20507;-77
2022/09/03 13:09:51;;;;;;;2.10;1.50;;;25.60;93.70;;;;;;4926360;29;20472;-77
2022/09/03 13:12:46;;;;;;;3.17;1.43;;;25.60;93.30;;;;;;4922806;29;20487;-77
2022/09/03 13:15:40;;;;;;;1.67;1.57;;;25.80;93.80;;;;;;4928728;29;20452;-77
2022/09/03 13:18:38;;;;;;;4.10;1.60;;;25.90;92.20;;;;;;4927763;29;20571;-77
2022/09/03 13:21:42;;;;;;;2.50;1.57;;;26.00;91.40;;;;;;4925268;29;20582;-77
2022/09/03 13:25:01;;;;;;;2.53;1.30;;;26.10;92.10;;;;;;4926450;28;20581;-77
2022/09/03 13:28:07;;;;;;;1.37;1.27;;;26.20;92.00;;;;;;4917951;29;20567;-76
2022/09/03 13:31:01;;;;;;;1.90;1.20;;;26.20;91.30;;;;;;4917587;29;20631;-76
2022/09/03 13:33:53;;;;;;;5.27;1.43;;;26.20;91.10;;;;;;4924911;29;20559;-77
2022/09/03 13:36:49;;;;;;;3.50;1.60;;;26.20;90.50;;;;;;4925150;28;20638;-75
2022/09/03 13:39:44;;;;;;;2.90;1.30;;;26.30;90.60;;;;;;4922253;29;20487;-74
2022/09/03 13:42:36;;;;;;;1.47;1.37;;;26.80;90.20;;;;;;4918413;29;20467;-73
2022/09/03 13:45:30;;;;;;;1.63;1.40;;;27.10;89.20;;;;;;4915939;29;20539;-76
2022/09/03 13:51:37;;;;;;;2.77;1.30;;;27.60;89.10;;;;;;4926019;29;20452;-78
2022/09/03 13:54:30;;;;;;;2.60;1.20;;;28.10;87.30;;;;;;4921790;29;20462;-76
2022/09/03 13:57:47;;;;;;;1.73;1.47;;;28.20;83.70;;;;;;4926621;29;20475;-75
2022/09/03 14:00:42;;;;;;;3.77;2.97;;;29.50;81.30;;;;;;4933638;29;20519;-81
2022/09/03 14:03:35;;;;;;;2.60;1.87;;;30.50;75.70;;;;;;4933000;29;20452;-73
2022/09/03 14:06:39;;;;;;;9.23;8.30;;;30.30;73.20;;;;;;4931291;29;20547;-76
2022/09/03 14:09:42;;;;;;;51.83;48.57;;;30.00;75.40;;;;;;4939715;28;20514;-75
2022/09/03 14:12:43;;;;;;;12.90;11.80;;;29.60;76.00;;;;;;4935745;29;21350;-76
2022/09/03 14:15:36;;;;;;;5.03;4.70;;;29.20;75.20;;;;;;4939834;29;20468;-75
2022/09/03 14:18:39;;;;;;;606.43;578.47;;;28.80;75.60;;;;;;4944994;29;20468;-76
2022/09/03 14:21:31;;;;;;;12.50;11.90;;;28.60;74.80;;;;;;4943165;28;20500;-78
2022/09/03 14:24:25;;;;;;;3.50;3.20;;;28.50;74.40;;;;;;4945652;28;20563;-77
2022/09/03 14:27:24;;;;;;;5.20;4.70;;;28.60;74.70;;;;;;4949830;28;20522;-79
2022/09/03 14:30:24;;;;;;;1.50;1.40;;;28.50;72.90;;;;;;4952562;28;20468;-78
2022/09/03 14:33:24;;;;;;;2.07;1.70;;;28.40;73.30;;;;;;4953135;28;20524;-77
2022/09/03 14:36:21;;;;;;;2.63;1.50;;;29.20;72.10;;;;;;4955706;28;20467;-79
2022/09/03 14:39:28;;;;;;;3.90;1.73;;;30.20;70.80;;;;;;4952573;28;20491;-78
2022/09/03 14:42:35;;;;;;;4.00;2.10;;;;;;;;;;4939867;28;20984;-75
2022/09/03 14:46:03;;;;;;;2.20;2.03;;;32.00;67.10;;;;;;4927710;29;20459;-77
2022/09/03 14:49:19;;;;;;;2.28;1.80;;;34.50;60.00;;;;;;4939746;29;20455;-76
2022/09/03 14:52:20;;;;;;;2.63;1.50;;;34.90;57.80;;;;;;4940346;28;20259;-71
2022/09/03 14:55:31;;;;;;;2.35;1.50;;;34.00;57.80;;;;;;4931551;29;20304;-77
2022/09/03 14:58:34;;;;;;;2.60;1.45;;;32.90;57.80;;;;;;4940332;29;20217;-77
2022/09/03 15:01:29;;;;;;;1.67;1.20;;;;;;;;;;4941184;29;20597;-73
2022/09/03 15:04:36;;;;;;;1.20;1.20;;;;;;;;;;4936482;28;20211;-74
2022/09/03 15:07:34;;;;;;;2.50;1.50;;;31.90;59.20;;;;;;4948356;28;20548;-74
2022/09/03 15:10:30;;;;;;;1.80;1.47;;;29.90;60.80;;;;;;4943120;28;21006;-77